createdAt,value
2023-07-28T00:03:33.706Z,17.40
2023-07-28T00:08:35.780Z,17.40
2023-07-28T00:13:37.803Z,17.40
2023-07-28T00:18:39.870Z,17.40
2023-07-28T00:23:41.879Z,17.40
2023-07-28T00:28:43.937Z,17.40
2023-07-28T00:33:46.042Z,17.30
2023-07-28T00:38:48.146Z,17.30
2023-07-28T00:43:50.220Z,17.20
2023-07-28T00:48:52.398Z,17.20
2023-07-28T00:53:54.592Z,17.20
2023-07-28T00:58:57.017Z,17.20
2023-07-28T01:03:59.765Z,17.10
2023-07-28T01:09:13.081Z,17.10
2023-07-28T01:14:15.122Z,17.10
2023-07-28T01:19:21.104Z,17.10
2023-07-28T01:24:29.294Z,17.10
2023-07-28T01:29:31.829Z,17.10
2023-07-28T01:34:34.008Z,17.10
2023-07-28T01:39:36.144Z,17.00
2023-07-28T01:44:38.284Z,17.00
2023-07-28T01:49:40.260Z,17.00
2023-07-28T01:54:42.332Z,17.00
2023-07-28T01:59:44.319Z,17.00
2023-07-28T02:04:46.447Z,17.00
2023-07-28T02:09:48.474Z,16.90
2023-07-28T02:14:51.878Z,16.90
2023-07-28T02:19:53.879Z,17.00
2023-07-28T02:24:55.966Z,16.90
2023-07-28T02:29:57.955Z,16.90
2023-07-28T02:35:00.118Z,16.90
2023-07-28T02:40:02.172Z,16.90
2023-07-28T02:45:07.196Z,16.90
2023-07-28T02:50:09.450Z,16.90
2023-07-28T02:55:11.549Z,16.90
2023-07-28T03:00:13.938Z,16.90
2023-07-28T03:05:15.966Z,16.90
2023-07-28T03:10:18.184Z,16.90
2023-07-28T03:15:21.139Z,16.90
2023-07-28T03:20:23.348Z,16.90
2023-07-28T03:25:25.347Z,16.90
2023-07-28T03:30:28.124Z,16.90
2023-07-28T03:35:30.130Z,17.00
2023-07-28T03:40:44.869Z,17.00
2023-07-28T03:45:46.975Z,16.90
2023-07-28T03:50:49.154Z,16.90
2023-07-28T03:55:51.204Z,16.90
2023-07-28T04:00:54.336Z,16.80
2023-07-28T04:05:56.407Z,16.90
2023-07-28T04:10:58.483Z,16.90
2023-07-28T04:16:00.722Z,16.90
2023-07-28T04:21:02.837Z,16.80
2023-07-28T04:26:04.842Z,16.90
2023-07-28T04:31:07.831Z,16.80
2023-07-28T04:36:25.706Z,16.80
2023-07-28T04:41:28.084Z,16.80
2023-07-28T04:46:30.078Z,16.80
2023-07-28T04:51:33.033Z,16.80
2023-07-28T04:56:55.311Z,16.80
2023-07-28T05:02:04.086Z,16.80
2023-07-28T05:07:06.352Z,16.80
2023-07-28T05:12:08.630Z,16.80
2023-07-28T05:17:19.057Z,16.70
2023-07-28T05:22:41.627Z,16.80
2023-07-28T05:27:43.939Z,16.80
2023-07-28T05:32:47.569Z,16.80
2023-07-28T05:38:25.044Z,16.80
2023-07-28T05:43:27.405Z,16.80
2023-07-28T05:48:31.425Z,16.90
2023-07-28T05:53:33.826Z,16.90
2023-07-28T05:58:40.054Z,17.00
2023-07-28T06:03:45.579Z,17.00
2023-07-28T06:08:55.405Z,17.10
2023-07-28T06:13:58.390Z,17.10
2023-07-28T06:19:03.032Z,17.10
2023-07-28T06:24:05.148Z,17.10
2023-07-28T06:29:07.245Z,17.10
2023-07-28T06:34:09.271Z,17.20
2023-07-28T06:39:11.282Z,17.30
2023-07-28T06:44:13.307Z,17.30
2023-07-28T06:49:15.866Z,17.40
2023-07-28T06:54:17.923Z,17.50
2023-07-28T06:59:22.132Z,17.70
2023-07-28T07:04:25.061Z,17.90
2023-07-28T07:09:27.803Z,17.80
2023-07-28T07:14:29.830Z,17.80
2023-07-28T07:19:31.833Z,17.90
2023-07-28T07:24:33.980Z,17.90
2023-07-28T07:29:36.140Z,18.00
2023-07-28T07:34:39.430Z,18.00
2023-07-28T07:39:42.682Z,18.00
2023-07-28T07:44:44.671Z,18.10
2023-07-28T07:49:46.670Z,18.20
2023-07-28T07:54:48.637Z,18.30
2023-07-28T07:59:50.712Z,18.40
2023-07-28T08:04:54.324Z,18.40
2023-07-28T08:09:56.689Z,18.40
2023-07-28T08:14:59.076Z,18.50
2023-07-28T08:20:01.111Z,18.60
2023-07-28T08:25:03.336Z,18.70
2023-07-28T08:30:06.526Z,18.90
2023-07-28T08:35:09.332Z,19.10
2023-07-28T08:40:12.378Z,19.30
2023-07-28T08:45:15.109Z,19.40
2023-07-28T08:50:17.376Z,19.50
2023-07-28T08:55:19.444Z,19.70
2023-07-28T09:00:21.764Z,19.80
2023-07-28T09:05:25.433Z,20.00
2023-07-28T09:10:40.957Z,20.20
2023-07-28T09:15:43.269Z,20.30
2023-07-28T09:20:45.403Z,20.60
2023-07-28T09:25:47.541Z,20.30
2023-07-28T09:30:51.020Z,19.80
2023-07-28T09:35:53.538Z,19.60
2023-07-28T09:40:59.837Z,19.70
2023-07-28T09:46:04.259Z,19.70
2023-07-28T09:51:21.160Z,19.90
2023-07-28T09:56:25.223Z,20.30
2023-07-28T10:01:27.972Z,20.30
2023-07-28T10:06:31.163Z,20.30
2023-07-28T10:11:33.649Z,20.40
2023-07-28T10:16:40.029Z,20.50
2023-07-28T10:21:45.157Z,20.70
2023-07-28T10:26:47.179Z,20.80
2023-07-28T10:31:52.429Z,21.00
2023-07-28T10:37:00.387Z,21.40
2023-07-28T10:42:05.892Z,21.40
2023-07-28T10:47:11.785Z,21.00
2023-07-28T10:52:13.784Z,20.80
2023-07-28T10:57:16.420Z,20.90
2023-07-28T11:02:18.680Z,20.90
2023-07-28T11:07:21.379Z,20.90
2023-07-28T11:12:23.457Z,21.10
2023-07-28T11:17:26.204Z,21.00
2023-07-28T11:22:28.955Z,21.10
2023-07-28T11:27:30.965Z,21.40
2023-07-28T11:32:35.252Z,21.30
2023-07-28T11:37:37.888Z,21.40
2023-07-28T11:42:41.079Z,22.30
2023-07-28T11:48:12.559Z,23.00
2023-07-28T11:53:15.054Z,22.20
2023-07-28T11:58:17.189Z,22.50
2023-07-28T12:03:19.354Z,22.80
2023-07-28T12:08:40.187Z,22.80
2023-07-28T12:18:59.055Z,22.60
2023-07-28T12:34:11.385Z,22.40
2023-07-28T12:49:52.193Z,22.70
2023-07-28T12:54:54.948Z,22.90
2023-07-28T13:05:01.902Z,22.50
2023-07-28T13:10:04.621Z,23.00
2023-07-28T13:15:07.034Z,23.50
2023-07-28T13:20:09.837Z,23.90
2023-07-28T13:25:11.895Z,24.00
2023-07-28T13:30:13.905Z,24.40
2023-07-28T13:35:16.294Z,24.40
2023-07-28T13:40:18.502Z,24.30
2023-07-28T13:45:20.806Z,24.80
2023-07-28T13:55:41.166Z,24.10
2023-07-28T14:00:43.442Z,24.30
2023-07-28T14:05:45.915Z,23.70
2023-07-28T14:10:47.998Z,23.80
2023-07-28T14:15:51.305Z,23.90
2023-07-28T14:20:53.307Z,24.30
2023-07-28T14:25:55.722Z,24.30
2023-07-28T14:30:57.786Z,23.70
2023-07-28T14:36:00.065Z,23.60
2023-07-28T14:41:02.089Z,24.10
2023-07-28T14:46:04.238Z,23.20
2023-07-28T14:51:06.289Z,22.80
2023-07-28T14:56:08.346Z,23.50
2023-07-28T15:01:13.483Z,23.50
2023-07-28T15:06:15.705Z,23.50
2023-07-28T15:11:19.103Z,23.00
2023-07-28T15:16:21.269Z,22.90
2023-07-28T15:21:24.238Z,23.00
2023-07-28T15:26:26.292Z,23.50
2023-07-28T15:31:28.431Z,23.30
2023-07-28T15:36:30.467Z,23.10
2023-07-28T15:41:32.746Z,22.60
2023-07-28T15:46:36.506Z,22.50
2023-07-28T15:51:38.599Z,22.30
2023-07-28T15:56:40.709Z,22.20
2023-07-28T16:01:42.962Z,22.00
2023-07-28T16:06:45.581Z,21.90
2023-07-28T16:11:47.574Z,21.60
2023-07-28T16:16:49.753Z,21.60
2023-07-28T16:21:53.159Z,21.30
2023-07-28T16:26:55.169Z,21.20
2023-07-28T16:31:58.244Z,21.10
2023-07-28T16:37:00.372Z,21.00
2023-07-28T16:42:03.755Z,21.10
2023-07-28T16:47:07.153Z,21.20
2023-07-28T16:52:09.186Z,21.00
2023-07-28T16:57:12.663Z,20.90
2023-07-28T17:02:14.705Z,20.80
2023-07-28T17:07:16.780Z,20.90
2023-07-28T17:12:19.120Z,21.10
2023-07-28T17:17:21.180Z,21.00
2023-07-28T17:22:23.252Z,20.90
2023-07-28T17:27:25.298Z,20.70
2023-07-28T17:32:27.294Z,20.50
2023-07-28T17:37:29.316Z,20.40
2023-07-28T17:42:31.292Z,20.40
2023-07-28T17:47:35.353Z,20.40
2023-07-28T17:52:37.402Z,20.30
2023-07-28T17:57:39.421Z,19.90
2023-07-28T18:02:41.681Z,19.80
2023-07-28T18:07:43.778Z,19.70
2023-07-28T18:12:45.825Z,19.50
2023-07-28T18:17:47.854Z,19.50
2023-07-28T18:22:49.942Z,19.50
2023-07-28T18:27:52.008Z,19.50
2023-07-28T18:32:54.432Z,19.60
2023-07-28T18:37:56.642Z,19.70
2023-07-28T18:42:58.845Z,19.50
2023-07-28T18:48:01.178Z,19.50
2023-07-28T18:53:03.324Z,19.40
2023-07-28T18:58:05.329Z,19.40
2023-07-28T19:03:07.838Z,19.40
2023-07-28T19:08:10.330Z,19.30
2023-07-28T19:13:12.421Z,19.20
2023-07-28T19:18:14.586Z,19.10
2023-07-28T19:23:17.238Z,19.10
2023-07-28T19:28:19.516Z,19.20
2023-07-28T19:33:22.262Z,19.20
2023-07-28T19:38:24.361Z,19.20
2023-07-28T19:43:26.388Z,19.20
2023-07-28T19:48:28.490Z,19.10
2023-07-28T19:53:31.320Z,18.90
2023-07-28T19:58:33.295Z,18.90
2023-07-28T20:03:35.367Z,18.80
2023-07-28T20:08:37.473Z,18.80
2023-07-28T20:13:39.432Z,18.80
2023-07-28T20:18:43.436Z,18.90
2023-07-28T20:23:45.530Z,18.80
2023-07-28T20:28:47.648Z,18.80
2023-07-28T20:33:49.781Z,18.80
2023-07-28T20:38:51.776Z,18.80
2023-07-28T20:43:54.970Z,18.80
2023-07-28T20:48:57.216Z,18.80
2023-07-28T20:53:59.241Z,18.90
2023-07-28T20:59:01.255Z,18.80
2023-07-28T21:04:03.243Z,18.80
2023-07-28T21:09:05.292Z,18.80
2023-07-28T21:14:07.379Z,18.80
2023-07-28T21:19:09.433Z,18.70
2023-07-28T21:24:11.528Z,18.70
2023-07-28T21:29:13.564Z,18.60
2023-07-28T21:34:16.643Z,18.60
2023-07-28T21:39:18.618Z,18.50
2023-07-28T21:44:20.587Z,18.50
2023-07-28T21:49:22.851Z,18.50
2023-07-28T21:54:24.849Z,18.50
2023-07-28T21:59:27.221Z,18.50
2023-07-28T22:04:29.227Z,18.40
2023-07-28T22:09:31.183Z,18.50
2023-07-28T22:14:33.376Z,18.50
2023-07-28T22:19:35.469Z,18.50
2023-07-28T22:24:38.164Z,18.50
2023-07-28T22:29:40.171Z,18.50
2023-07-28T22:34:42.255Z,18.50
2023-07-28T22:39:44.362Z,18.40
2023-07-28T22:44:46.737Z,18.40
2023-07-28T22:49:48.691Z,18.40
2023-07-28T22:54:54.077Z,18.40
2023-07-28T23:00:01.401Z,18.40
2023-07-28T23:05:04.218Z,18.40
2023-07-28T23:10:07.418Z,18.40
2023-07-28T23:15:09.647Z,18.40
2023-07-28T23:20:11.823Z,18.40
2023-07-28T23:25:14.074Z,18.40
2023-07-28T23:30:16.259Z,18.40
2023-07-28T23:35:18.230Z,18.40
2023-07-28T23:40:20.304Z,18.40
2023-07-28T23:45:22.396Z,18.30
2023-07-28T23:50:24.578Z,18.30
2023-07-28T23:55:26.730Z,18.20
